sensor_id;sensor_type;location;lat;lon;timestamp;temperature;humidity
7684;DHT22;3884;48.616;12.872;2023-04-19T00:00:37;8.80;99.90
7684;DHT22;3884;48.616;12.872;2023-04-19T00:03:05;8.70;99.90
7684;DHT22;3884;48.616;12.872;2023-04-19T00:05:32;8.80;99.90
7684;DHT22;3884;48.616;12.872;2023-04-19T00:07:59;8.80;99.90
7684;DHT22;3884;48.616;12.872;2023-04-19T00:10:26;8.80;99.90
7684;DHT22;3884;48.616;12.872;2023-04-19T00:12:53;8.70;99.90
7684;DHT22;3884;48.616;12.872;2023-04-19T00:15:21;8.80;99.90
7684;DHT22;3884;48.616;12.872;2023-04-19T00:17:48;8.80;99.90
7684;DHT22;3884;48.616;12.872;2023-04-19T00:20:15;8.80;99.90
7684;DHT22;3884;48.616;12.872;2023-04-19T00:22:41;8.80;99.90
7684;DHT22;3884;48.616;12.872;2023-04-19T00:25:08;8.80;99.90
7684;DHT22;3884;48.616;12.872;2023-04-19T00:27:35;8.80;99.90
7684;DHT22;3884;48.616;12.872;2023-04-19T00:30:02;8.70;99.90
7684;DHT22;3884;48.616;12.872;2023-04-19T00:32:31;8.70;99.90
7684;DHT22;3884;48.616;12.872;2023-04-19T00:34:58;8.60;99.90
7684;DHT22;3884;48.616;12.872;2023-04-19T00:37:25;8.60;99.90
7684;DHT22;3884;48.616;12.872;2023-04-19T00:39:51;8.60;99.90
7684;DHT22;3884;48.616;12.872;2023-04-19T00:42:18;8.70;99.90
7684;DHT22;3884;48.616;12.872;2023-04-19T00:44:46;8.60;99.90
7684;DHT22;3884;48.616;12.872;2023-04-19T00:47:14;8.60;99.90
7684;DHT22;3884;48.616;12.872;2023-04-19T00:49:43;8.60;99.90
7684;DHT22;3884;48.616;12.872;2023-04-19T00:52:10;8.70;99.90
7684;DHT22;3884;48.616;12.872;2023-04-19T00:54:37;8.50;99.90
7684;DHT22;3884;48.616;12.872;2023-04-19T00:57:06;8.50;99.90
7684;DHT22;3884;48.616;12.872;2023-04-19T00:59:33;8.40;99.90
7684;DHT22;3884;48.616;12.872;2023-04-19T01:02:02;8.30;99.90
7684;DHT22;3884;48.616;12.872;2023-04-19T01:04:29;8.30;99.90
7684;DHT22;3884;48.616;12.872;2023-04-19T01:06:58;8.30;99.90
7684;DHT22;3884;48.616;12.872;2023-04-19T01:09:25;8.30;99.90
7684;DHT22;3884;48.616;12.872;2023-04-19T01:11:51;8.30;99.90
7684;DHT22;3884;48.616;12.872;2023-04-19T01:14:18;8.30;99.90
7684;DHT22;3884;48.616;12.872;2023-04-19T01:16:45;8.20;99.90
7684;DHT22;3884;48.616;12.872;2023-04-19T01:19:12;8.20;99.90
7684;DHT22;3884;48.616;12.872;2023-04-19T01:21:39;8.20;99.90
7684;DHT22;3884;48.616;12.872;2023-04-19T01:24:08;8.00;99.90
7684;DHT22;3884;48.616;12.872;2023-04-19T01:26:35;7.90;99.90
7684;DHT22;3884;48.616;12.872;2023-04-19T01:29:02;7.80;99.90
7684;DHT22;3884;48.616;12.872;2023-04-19T01:31:29;7.60;99.90
7684;DHT22;3884;48.616;12.872;2023-04-19T01:33:56;7.70;99.90
7684;DHT22;3884;48.616;12.872;2023-04-19T01:36:23;7.50;99.90
7684;DHT22;3884;48.616;12.872;2023-04-19T01:38:50;7.40;99.90
7684;DHT22;3884;48.616;12.872;2023-04-19T01:41:18;7.50;99.90
7684;DHT22;3884;48.616;12.872;2023-04-19T01:43:47;7.40;99.90
7684;DHT22;3884;48.616;12.872;2023-04-19T01:46:14;7.50;99.90
7684;DHT22;3884;48.616;12.872;2023-04-19T01:48:40;7.40;99.90
7684;DHT22;3884;48.616;12.872;2023-04-19T01:51:07;7.50;99.90
7684;DHT22;3884;48.616;12.872;2023-04-19T01:53:34;7.40;99.90
7684;DHT22;3884;48.616;12.872;2023-04-19T01:56:01;7.40;99.90
7684;DHT22;3884;48.616;12.872;2023-04-19T01:58:29;7.30;99.90
7684;DHT22;3884;48.616;12.872;2023-04-19T02:00:57;7.30;99.90
7684;DHT22;3884;48.616;12.872;2023-04-19T02:03:24;7.20;99.90
7684;DHT22;3884;48.616;12.872;2023-04-19T02:05:51;7.00;99.90
7684;DHT22;3884;48.616;12.872;2023-04-19T02:08:20;7.00;99.90
7684;DHT22;3884;48.616;12.872;2023-04-19T02:10:47;7.00;99.90
7684;DHT22;3884;48.616;12.872;2023-04-19T02:13:14;6.90;99.90
7684;DHT22;3884;48.616;12.872;2023-04-19T02:15:42;6.90;99.90
7684;DHT22;3884;48.616;12.872;2023-04-19T02:18:09;6.90;99.90
7684;DHT22;3884;48.616;12.872;2023-04-19T02:20:39;6.70;99.90
7684;DHT22;3884;48.616;12.872;2023-04-19T02:23:05;6.70;99.90
7684;DHT22;3884;48.616;12.872;2023-04-19T02:25:33;6.70;99.90
7684;DHT22;3884;48.616;12.872;2023-04-19T02:27:59;6.60;99.90
7684;DHT22;3884;48.616;12.872;2023-04-19T02:30:26;6.60;99.90
7684;DHT22;3884;48.616;12.872;2023-04-19T02:32:55;6.50;99.90
7684;DHT22;3884;48.616;12.872;2023-04-19T02:35:23;6.30;99.90
7684;DHT22;3884;48.616;12.872;2023-04-19T02:37:50;6.30;99.90
7684;DHT22;3884;48.616;12.872;2023-04-19T02:40:17;6.20;99.90
7684;DHT22;3884;48.616;12.872;2023-04-19T02:42:44;6.30;99.90
7684;DHT22;3884;48.616;12.872;2023-04-19T02:45:11;6.20;99.90
7684;DHT22;3884;48.616;12.872;2023-04-19T02:47:38;6.20;99.90
7684;DHT22;3884;48.616;12.872;2023-04-19T02:50:07;6.30;99.90
7684;DHT22;3884;48.616;12.872;2023-04-19T02:52:41;6.30;99.90
7684;DHT22;3884;48.616;12.872;2023-04-19T02:55:08;6.30;99.90
7684;DHT22;3884;48.616;12.872;2023-04-19T02:57:35;6.20;99.90
7684;DHT22;3884;48.616;12.872;2023-04-19T03:00:04;6.30;99.90
7684;DHT22;3884;48.616;12.872;2023-04-19T03:02:34;6.30;99.90
7684;DHT22;3884;48.616;12.872;2023-04-19T03:05:02;6.10;99.90
7684;DHT22;3884;48.616;12.872;2023-04-19T03:07:30;5.80;99.90
7684;DHT22;3884;48.616;12.872;2023-04-19T03:09:58;5.70;99.90
7684;DHT22;3884;48.616;12.872;2023-04-19T03:12:25;5.60;99.90
7684;DHT22;3884;48.616;12.872;2023-04-19T03:14:52;5.80;99.90
7684;DHT22;3884;48.616;12.872;2023-04-19T03:17:19;5.80;99.90
7684;DHT22;3884;48.616;12.872;2023-04-19T03:19:46;5.70;99.90
7684;DHT22;3884;48.616;12.872;2023-04-19T03:22:14;5.70;99.90
7684;DHT22;3884;48.616;12.872;2023-04-19T03:24:42;5.70;99.90
7684;DHT22;3884;48.616;12.872;2023-04-19T03:27:17;5.70;99.90
7684;DHT22;3884;48.616;12.872;2023-04-19T03:29:47;5.60;99.90
7684;DHT22;3884;48.616;12.872;2023-04-19T03:32:14;5.50;99.90
7684;DHT22;3884;48.616;12.872;2023-04-19T03:34:41;5.50;99.90
7684;DHT22;3884;48.616;12.872;2023-04-19T03:37:10;5.50;99.90
7684;DHT22;3884;48.616;12.872;2023-04-19T03:39:37;5.50;99.90
7684;DHT22;3884;48.616;12.872;2023-04-19T03:42:09;5.50;99.90
7684;DHT22;3884;48.616;12.872;2023-04-19T03:44:45;5.50;99.90
7684;DHT22;3884;48.616;12.872;2023-04-19T03:47:13;5.30;99.90
7684;DHT22;3884;48.616;12.872;2023-04-19T03:49:44;5.20;99.90
7684;DHT22;3884;48.616;12.872;2023-04-19T03:52:12;5.10;99.90
7684;DHT22;3884;48.616;12.872;2023-04-19T03:54:38;5.20;99.90
7684;DHT22;3884;48.616;12.872;2023-04-19T03:57:14;5.20;99.90
7684;DHT22;3884;48.616;12.872;2023-04-19T03:59:42;5.20;99.90
7684;DHT22;3884;48.616;12.872;2023-04-19T04:02:09;5.20;99.90
7684;DHT22;3884;48.616;12.872;2023-04-19T04:04:36;5.20;99.90
7684;DHT22;3884;48.616;12.872;2023-04-19T04:07:03;5.20;99.90
7684;DHT22;3884;48.616;12.872;2023-04-19T04:09:30;5.10;99.90
7684;DHT22;3884;48.616;12.872;2023-04-19T04:11:58;5.30;99.90
7684;DHT22;3884;48.616;12.872;2023-04-19T04:14:26;5.30;99.90
7684;DHT22;3884;48.616;12.872;2023-04-19T04:16:53;5.30;99.90
7684;DHT22;3884;48.616;12.872;2023-04-19T04:19:20;5.30;99.90
7684;DHT22;3884;48.616;12.872;2023-04-19T04:21:47;5.30;99.90
7684;DHT22;3884;48.616;12.872;2023-04-19T04:24:15;5.20;99.90
7684;DHT22;3884;48.616;12.872;2023-04-19T04:26:59;5.30;99.90
7684;DHT22;3884;48.616;12.872;2023-04-19T04:29:33;5.20;99.90
7684;DHT22;3884;48.616;12.872;2023-04-19T04:32:02;5.30;99.90
7684;DHT22;3884;48.616;12.872;2023-04-19T04:34:37;5.30;99.90
7684;DHT22;3884;48.616;12.872;2023-04-19T04:37:09;5.30;99.90
7684;DHT22;3884;48.616;12.872;2023-04-19T04:39:37;5.60;99.90
7684;DHT22;3884;48.616;12.872;2023-04-19T04:42:06;5.60;99.90
7684;DHT22;3884;48.616;12.872;2023-04-19T04:44:35;5.60;99.90
7684;DHT22;3884;48.616;12.872;2023-04-19T04:47:02;5.60;99.90
7684;DHT22;3884;48.616;12.872;2023-04-19T04:49:37;5.70;99.90
7684;DHT22;3884;48.616;12.872;2023-04-19T04:52:04;5.80;99.90
7684;DHT22;3884;48.616;12.872;2023-04-19T04:54:38;5.90;99.90
7684;DHT22;3884;48.616;12.872;2023-04-19T04:57:16;5.90;99.90
7684;DHT22;3884;48.616;12.872;2023-04-19T04:59:44;6.00;99.90
7684;DHT22;3884;48.616;12.872;2023-04-19T05:02:12;6.10;99.90
7684;DHT22;3884;48.616;12.872;2023-04-19T05:04:39;6.10;99.90
7684;DHT22;3884;48.616;12.872;2023-04-19T05:07:06;6.10;99.90
7684;DHT22;3884;48.616;12.872;2023-04-19T05:09:33;6.30;99.90
7684;DHT22;3884;48.616;12.872;2023-04-19T05:12:00;6.30;99.90
7684;DHT22;3884;48.616;12.872;2023-04-19T05:14:27;6.30;99.90
7684;DHT22;3884;48.616;12.872;2023-04-19T05:16:55;6.30;99.90
7684;DHT22;3884;48.616;12.872;2023-04-19T05:19:22;6.30;99.90
7684;DHT22;3884;48.616;12.872;2023-04-19T05:21:55;6.40;99.90
7684;DHT22;3884;48.616;12.872;2023-04-19T05:24:22;6.40;99.90
7684;DHT22;3884;48.616;12.872;2023-04-19T05:26:50;6.40;99.90
7684;DHT22;3884;48.616;12.872;2023-04-19T05:29:17;6.40;99.90
7684;DHT22;3884;48.616;12.872;2023-04-19T05:31:47;6.50;99.90
7684;DHT22;3884;48.616;12.872;2023-04-19T05:34:34;6.40;99.90
7684;DHT22;3884;48.616;12.872;2023-04-19T05:37:02;6.40;99.90
7684;DHT22;3884;48.616;12.872;2023-04-19T05:39:29;6.50;99.90
7684;DHT22;3884;48.616;12.872;2023-04-19T05:41:57;6.50;99.90
7684;DHT22;3884;48.616;12.872;2023-04-19T05:44:24;6.60;99.90
7684;DHT22;3884;48.616;12.872;2023-04-19T05:46:51;6.60;99.90
7684;DHT22;3884;48.616;12.872;2023-04-19T05:49:34;6.60;99.90
7684;DHT22;3884;48.616;12.872;2023-04-19T05:52:15;6.60;99.90
7684;DHT22;3884;48.616;12.872;2023-04-19T05:54:48;6.60;99.90
7684;DHT22;3884;48.616;12.872;2023-04-19T05:57:16;6.70;99.90
7684;DHT22;3884;48.616;12.872;2023-04-19T05:59:43;6.70;99.90
7684;DHT22;3884;48.616;12.872;2023-04-19T06:02:12;6.70;99.90
7684;DHT22;3884;48.616;12.872;2023-04-19T06:04:41;6.80;99.90
7684;DHT22;3884;48.616;12.872;2023-04-19T06:07:09;6.90;99.90
7684;DHT22;3884;48.616;12.872;2023-04-19T06:09:38;6.90;99.90
7684;DHT22;3884;48.616;12.872;2023-04-19T06:12:06;7.00;99.90
7684;DHT22;3884;48.616;12.872;2023-04-19T06:14:33;7.00;99.90
7684;DHT22;3884;48.616;12.872;2023-04-19T06:17:00;7.10;99.90
7684;DHT22;3884;48.616;12.872;2023-04-19T06:19:27;7.20;99.90
7684;DHT22;3884;48.616;12.872;2023-04-19T06:21:55;7.10;99.90
7684;DHT22;3884;48.616;12.872;2023-04-19T06:24:22;7.20;99.90
7684;DHT22;3884;48.616;12.872;2023-04-19T06:26:49;7.30;99.90
7684;DHT22;3884;48.616;12.872;2023-04-19T06:29:16;7.30;99.90
7684;DHT22;3884;48.616;12.872;2023-04-19T06:31:44;7.40;99.90
7684;DHT22;3884;48.616;12.872;2023-04-19T06:34:11;7.40;99.90
7684;DHT22;3884;48.616;12.872;2023-04-19T06:36:38;7.40;99.90
7684;DHT22;3884;48.616;12.872;2023-04-19T06:39:06;7.50;99.90
7684;DHT22;3884;48.616;12.872;2023-04-19T06:41:34;7.50;99.90
7684;DHT22;3884;48.616;12.872;2023-04-19T06:44:01;7.70;99.90
7684;DHT22;3884;48.616;12.872;2023-04-19T06:46:28;7.60;99.90
7684;DHT22;3884;48.616;12.872;2023-04-19T06:48:55;7.70;99.90
7684;DHT22;3884;48.616;12.872;2023-04-19T06:51:21;7.70;99.90
7684;DHT22;3884;48.616;12.872;2023-04-19T06:53:49;7.80;99.90
7684;DHT22;3884;48.616;12.872;2023-04-19T06:56:38;7.80;99.90
7684;DHT22;3884;48.616;12.872;2023-04-19T06:59:05;7.90;99.90
7684;DHT22;3884;48.616;12.872;2023-04-19T07:01:31;8.00;99.90
7684;DHT22;3884;48.616;12.872;2023-04-19T07:03:58;8.00;99.90
7684;DHT22;3884;48.616;12.872;2023-04-19T07:06:25;8.00;99.90
7684;DHT22;3884;48.616;12.872;2023-04-19T07:08:54;8.10;99.90
7684;DHT22;3884;48.616;12.872;2023-04-19T07:11:23;8.20;99.90
7684;DHT22;3884;48.616;12.872;2023-04-19T07:13:49;8.20;99.90
7684;DHT22;3884;48.616;12.872;2023-04-19T07:16:16;8.20;99.90
7684;DHT22;3884;48.616;12.872;2023-04-19T07:18:43;8.20;99.90
7684;DHT22;3884;48.616;12.872;2023-04-19T07:21:10;8.30;99.90
7684;DHT22;3884;48.616;12.872;2023-04-19T07:23:37;8.40;99.90
7684;DHT22;3884;48.616;12.872;2023-04-19T07:26:04;8.40;99.90
7684;DHT22;3884;48.616;12.872;2023-04-19T07:28:32;8.60;99.90
7684;DHT22;3884;48.616;12.872;2023-04-19T07:30:59;8.60;99.90
7684;DHT22;3884;48.616;12.872;2023-04-19T07:33:26;8.60;99.90
7684;DHT22;3884;48.616;12.872;2023-04-19T07:35:53;8.70;99.90
7684;DHT22;3884;48.616;12.872;2023-04-19T07:38:21;8.80;99.90
7684;DHT22;3884;48.616;12.872;2023-04-19T07:40:49;8.80;99.90
7684;DHT22;3884;48.616;12.872;2023-04-19T07:43:16;8.90;99.90
7684;DHT22;3884;48.616;12.872;2023-04-19T07:45:44;8.80;99.90
7684;DHT22;3884;48.616;12.872;2023-04-19T07:48:10;8.80;99.90
7684;DHT22;3884;48.616;12.872;2023-04-19T07:50:37;8.90;99.90
7684;DHT22;3884;48.616;12.872;2023-04-19T07:53:04;8.90;99.90
7684;DHT22;3884;48.616;12.872;2023-04-19T07:55:31;9.00;99.90
7684;DHT22;3884;48.616;12.872;2023-04-19T07:57:59;8.90;99.90
7684;DHT22;3884;48.616;12.872;2023-04-19T08:00:26;8.80;99.90
7684;DHT22;3884;48.616;12.872;2023-04-19T08:02:55;8.80;99.90
7684;DHT22;3884;48.616;12.872;2023-04-19T08:05:22;8.90;99.90
7684;DHT22;3884;48.616;12.872;2023-04-19T08:07:51;9.00;99.90
7684;DHT22;3884;48.616;12.872;2023-04-19T08:10:18;9.00;99.90
7684;DHT22;3884;48.616;12.872;2023-04-19T08:12:45;9.10;99.90
7684;DHT22;3884;48.616;12.872;2023-04-19T08:15:12;9.10;99.90
7684;DHT22;3884;48.616;12.872;2023-04-19T08:17:39;9.10;99.90
7684;DHT22;3884;48.616;12.872;2023-04-19T08:20:09;9.20;99.90
7684;DHT22;3884;48.616;12.872;2023-04-19T08:22:37;9.20;99.90
7684;DHT22;3884;48.616;12.872;2023-04-19T08:25:06;9.20;99.90
7684;DHT22;3884;48.616;12.872;2023-04-19T08:27:34;9.20;99.90
7684;DHT22;3884;48.616;12.872;2023-04-19T08:30:01;9.40;99.90
7684;DHT22;3884;48.616;12.872;2023-04-19T08:32:28;9.30;99.90
7684;DHT22;3884;48.616;12.872;2023-04-19T08:34:55;9.30;99.90
7684;DHT22;3884;48.616;12.872;2023-04-19T08:37:24;9.40;99.90
7684;DHT22;3884;48.616;12.872;2023-04-19T08:39:51;9.40;99.90
7684;DHT22;3884;48.616;12.872;2023-04-19T08:42:18;9.40;99.90
7684;DHT22;3884;48.616;12.872;2023-04-19T08:44:45;9.40;99.90
7684;DHT22;3884;48.616;12.872;2023-04-19T08:47:12;9.40;99.90
7684;DHT22;3884;48.616;12.872;2023-04-19T08:49:41;9.40;99.90
7684;DHT22;3884;48.616;12.872;2023-04-19T08:52:12;9.40;99.90
7684;DHT22;3884;48.616;12.872;2023-04-19T08:54:41;9.50;99.90
7684;DHT22;3884;48.616;12.872;2023-04-19T08:57:08;9.50;99.90
7684;DHT22;3884;48.616;12.872;2023-04-19T08:59:37;9.60;99.90
7684;DHT22;3884;48.616;12.872;2023-04-19T09:02:05;9.50;99.90
7684;DHT22;3884;48.616;12.872;2023-04-19T09:04:32;9.50;99.90
7684;DHT22;3884;48.616;12.872;2023-04-19T09:06:59;9.40;99.90
7684;DHT22;3884;48.616;12.872;2023-04-19T09:09:27;9.40;99.90
7684;DHT22;3884;48.616;12.872;2023-04-19T09:11:56;9.60;99.90
7684;DHT22;3884;48.616;12.872;2023-04-19T09:14:25;9.40;99.90
7684;DHT22;3884;48.616;12.872;2023-04-19T09:16:52;9.20;99.90
7684;DHT22;3884;48.616;12.872;2023-04-19T09:19:19;9.20;99.90
7684;DHT22;3884;48.616;12.872;2023-04-19T09:21:46;9.10;99.90
7684;DHT22;3884;48.616;12.872;2023-04-19T09:24:16;9.20;99.90
7684;DHT22;3884;48.616;12.872;2023-04-19T09:26:53;9.20;99.90
7684;DHT22;3884;48.616;12.872;2023-04-19T09:29:21;9.30;99.90
7684;DHT22;3884;48.616;12.872;2023-04-19T09:31:56;9.10;99.90
7684;DHT22;3884;48.616;12.872;2023-04-19T09:34:24;9.10;99.90
7684;DHT22;3884;48.616;12.872;2023-04-19T09:36:54;9.10;99.90
7684;DHT22;3884;48.616;12.872;2023-04-19T09:39:30;9.10;99.90
7684;DHT22;3884;48.616;12.872;2023-04-19T09:41:57;9.10;99.90
7684;DHT22;3884;48.616;12.872;2023-04-19T09:44:26;9.10;99.90
7684;DHT22;3884;48.616;12.872;2023-04-19T09:46:53;9.10;99.90
7684;DHT22;3884;48.616;12.872;2023-04-19T09:49:21;9.00;99.90
7684;DHT22;3884;48.616;12.872;2023-04-19T09:51:50;9.10;99.90
7684;DHT22;3884;48.616;12.872;2023-04-19T09:54:18;9.10;99.90
7684;DHT22;3884;48.616;12.872;2023-04-19T09:56:46;9.10;99.90
7684;DHT22;3884;48.616;12.872;2023-04-19T09:59:13;9.10;99.90
7684;DHT22;3884;48.616;12.872;2023-04-19T10:01:45;9.00;99.90
7684;DHT22;3884;48.616;12.872;2023-04-19T10:04:13;9.10;99.90
7684;DHT22;3884;48.616;12.872;2023-04-19T10:06:46;8.90;99.90
7684;DHT22;3884;48.616;12.872;2023-04-19T10:09:14;9.00;99.90
7684;DHT22;3884;48.616;12.872;2023-04-19T10:11:44;9.00;99.90
7684;DHT22;3884;48.616;12.872;2023-04-19T10:14:14;9.00;99.90
7684;DHT22;3884;48.616;12.872;2023-04-19T10:16:42;9.00;99.90
7684;DHT22;3884;48.616;12.872;2023-04-19T10:19:10;9.00;99.90
7684;DHT22;3884;48.616;12.872;2023-04-19T10:21:39;9.10;99.90
7684;DHT22;3884;48.616;12.872;2023-04-19T10:24:07;9.20;99.90
7684;DHT22;3884;48.616;12.872;2023-04-19T10:27:06;9.30;99.90
7684;DHT22;3884;48.616;12.872;2023-04-19T10:29:53;9.30;99.90
7684;DHT22;3884;48.616;12.872;2023-04-19T10:32:22;9.30;99.90
7684;DHT22;3884;48.616;12.872;2023-04-19T10:34:51;9.10;99.90
7684;DHT22;3884;48.616;12.872;2023-04-19T10:37:21;9.00;99.90
7684;DHT22;3884;48.616;12.872;2023-04-19T10:39:49;9.10;99.90
7684;DHT22;3884;48.616;12.872;2023-04-19T10:42:16;9.00;99.90
7684;DHT22;3884;48.616;12.872;2023-04-19T10:47:45;9.00;99.90
7684;DHT22;3884;48.616;12.872;2023-04-19T10:50:15;9.00;99.90
7684;DHT22;3884;48.616;12.872;2023-04-19T10:52:41;9.00;99.90
7684;DHT22;3884;48.616;12.872;2023-04-19T10:55:08;8.90;99.90
7684;DHT22;3884;48.616;12.872;2023-04-19T10:58:02;8.90;99.90
7684;DHT22;3884;48.616;12.872;2023-04-19T11:00:29;8.90;99.90
7684;DHT22;3884;48.616;12.872;2023-04-19T11:02:59;8.90;99.90
7684;DHT22;3884;48.616;12.872;2023-04-19T11:06:13;8.80;99.90
7684;DHT22;3884;48.616;12.872;2023-04-19T11:08:42;8.80;99.90
7684;DHT22;3884;48.616;12.872;2023-04-19T11:11:10;8.80;99.90
7684;DHT22;3884;48.616;12.872;2023-04-19T11:13:38;8.80;99.90
7684;DHT22;3884;48.616;12.872;2023-04-19T11:16:07;8.80;99.90
7684;DHT22;3884;48.616;12.872;2023-04-19T11:18:35;8.80;99.90
7684;DHT22;3884;48.616;12.872;2023-04-19T11:21:02;8.90;99.90
7684;DHT22;3884;48.616;12.872;2023-04-19T11:23:29;8.90;99.90
7684;DHT22;3884;48.616;12.872;2023-04-19T11:25:55;8.80;99.90
7684;DHT22;3884;48.616;12.872;2023-04-19T11:28:22;8.70;99.90
7684;DHT22;3884;48.616;12.872;2023-04-19T11:30:50;8.80;99.90
7684;DHT22;3884;48.616;12.872;2023-04-19T11:33:19;8.80;99.90
7684;DHT22;3884;48.616;12.872;2023-04-19T11:35:50;8.90;99.90
7684;DHT22;3884;48.616;12.872;2023-04-19T11:38:17;8.80;99.90
7684;DHT22;3884;48.616;12.872;2023-04-19T11:40:44;8.90;99.90
7684;DHT22;3884;48.616;12.872;2023-04-19T11:43:11;8.80;99.90
7684;DHT22;3884;48.616;12.872;2023-04-19T11:45:38;8.70;99.90
7684;DHT22;3884;48.616;12.872;2023-04-19T11:48:05;8.60;99.90
7684;DHT22;3884;48.616;12.872;2023-04-19T11:50:34;8.60;99.90
7684;DHT22;3884;48.616;12.872;2023-04-19T11:53:14;8.60;99.90
7684;DHT22;3884;48.616;12.872;2023-04-19T11:55:42;8.70;99.90
7684;DHT22;3884;48.616;12.872;2023-04-19T11:58:26;8.50;99.90
7684;DHT22;3884;48.616;12.872;2023-04-19T12:00:54;8.50;99.90
7684;DHT22;3884;48.616;12.872;2023-04-19T12:03:21;8.60;99.90
7684;DHT22;3884;48.616;12.872;2023-04-19T12:05:53;8.50;99.90
7684;DHT22;3884;48.616;12.872;2023-04-19T12:08:31;8.60;99.90
7684;DHT22;3884;48.616;12.872;2023-04-19T12:10:59;8.50;99.90
7684;DHT22;3884;48.616;12.872;2023-04-19T12:13:26;8.60;99.90
7684;DHT22;3884;48.616;12.872;2023-04-19T12:15:53;8.60;99.90
7684;DHT22;3884;48.616;12.872;2023-04-19T12:18:21;8.70;99.90
7684;DHT22;3884;48.616;12.872;2023-04-19T12:20:50;8.70;99.90
7684;DHT22;3884;48.616;12.872;2023-04-19T12:23:18;8.60;71.50
7684;DHT22;3884;48.616;12.872;2023-04-19T12:25:47;8.80;99.90
7684;DHT22;3884;48.616;12.872;2023-04-19T12:28:15;8.70;99.90
7684;DHT22;3884;48.616;12.872;2023-04-19T12:30:42;8.60;1.00
7684;DHT22;3884;48.616;12.872;2023-04-19T12:33:09;8.50;1.00
7684;DHT22;3884;48.616;12.872;2023-04-19T12:35:36;8.50;1.00
7684;DHT22;3884;48.616;12.872;2023-04-19T12:38:03;8.40;1.00
7684;DHT22;3884;48.616;12.872;2023-04-19T12:40:30;8.40;1.00
7684;DHT22;3884;48.616;12.872;2023-04-19T12:42:59;8.10;38.90
7684;DHT22;3884;48.616;12.872;2023-04-19T12:45:26;8.00;21.60
7684;DHT22;3884;48.616;12.872;2023-04-19T12:47:52;7.80;64.70
7684;DHT22;3884;48.616;12.872;2023-04-19T12:50:19;7.70;99.90
7684;DHT22;3884;48.616;12.872;2023-04-19T12:52:46;7.60;99.90
7684;DHT22;3884;48.616;12.872;2023-04-19T12:55:13;7.70;99.90
7684;DHT22;3884;48.616;12.872;2023-04-19T12:57:40;7.60;99.90
7684;DHT22;3884;48.616;12.872;2023-04-19T13:00:10;7.60;99.90
7684;DHT22;3884;48.616;12.872;2023-04-19T13:02:37;7.50;99.90
7684;DHT22;3884;48.616;12.872;2023-04-19T13:05:04;7.50;99.90
7684;DHT22;3884;48.616;12.872;2023-04-19T13:07:31;7.50;93.80
7684;DHT22;3884;48.616;12.872;2023-04-19T13:09:58;7.70;4.90
7684;DHT22;3884;48.616;12.872;2023-04-19T13:12:27;7.50;1.00
7684;DHT22;3884;48.616;12.872;2023-04-19T13:14:54;7.20;59.00
7684;DHT22;3884;48.616;12.872;2023-04-19T13:17:22;7.10;99.90
7684;DHT22;3884;48.616;12.872;2023-04-19T13:19:49;7.10;99.90
7684;DHT22;3884;48.616;12.872;2023-04-19T13:22:16;7.10;87.30
7684;DHT22;3884;48.616;12.872;2023-04-19T13:24:43;6.90;99.90
7684;DHT22;3884;48.616;12.872;2023-04-19T13:27:10;7.00;99.90
7684;DHT22;3884;48.616;12.872;2023-04-19T13:29:37;7.10;1.00
7684;DHT22;3884;48.616;12.872;2023-04-19T13:32:04;7.10;99.90
7684;DHT22;3884;48.616;12.872;2023-04-19T13:34:38;7.10;99.90
7684;DHT22;3884;48.616;12.872;2023-04-19T13:37:05;7.00;1.00
7684;DHT22;3884;48.616;12.872;2023-04-19T13:39:33;6.90;99.90
7684;DHT22;3884;48.616;12.872;2023-04-19T13:41:59;7.00;1.00
7684;DHT22;3884;48.616;12.872;2023-04-19T13:44:27;7.00;63.70
7684;DHT22;3884;48.616;12.872;2023-04-19T13:46:55;6.90;27.10
7684;DHT22;3884;48.616;12.872;2023-04-19T13:49:22;6.80;1.00
7684;DHT22;3884;48.616;12.872;2023-04-19T13:51:50;6.70;1.00
7684;DHT22;3884;48.616;12.872;2023-04-19T13:54:17;6.60;99.90
7684;DHT22;3884;48.616;12.872;2023-04-19T13:56:45;6.60;99.90
7684;DHT22;3884;48.616;12.872;2023-04-19T13:59:13;6.70;99.90
7684;DHT22;3884;48.616;12.872;2023-04-19T14:01:40;6.70;99.90
7684;DHT22;3884;48.616;12.872;2023-04-19T14:04:07;6.70;99.90
7684;DHT22;3884;48.616;12.872;2023-04-19T14:06:34;6.60;1.00
7684;DHT22;3884;48.616;12.872;2023-04-19T14:09:02;6.50;99.90
7684;DHT22;3884;48.616;12.872;2023-04-19T14:11:29;6.30;99.90
7684;DHT22;3884;48.616;12.872;2023-04-19T14:13:56;6.40;1.00
7684;DHT22;3884;48.616;12.872;2023-04-19T14:16:23;6.40;1.00
7684;DHT22;3884;48.616;12.872;2023-04-19T14:18:50;6.50;1.00
7684;DHT22;3884;48.616;12.872;2023-04-19T14:21:17;6.60;1.00
7684;DHT22;3884;48.616;12.872;2023-04-19T14:23:45;6.60;1.00
7684;DHT22;3884;48.616;12.872;2023-04-19T14:26:13;6.80;1.00
7684;DHT22;3884;48.616;12.872;2023-04-19T14:28:40;6.80;1.00
7684;DHT22;3884;48.616;12.872;2023-04-19T14:31:06;6.80;1.00
7684;DHT22;3884;48.616;12.872;2023-04-19T14:33:33;7.10;1.00
7684;DHT22;3884;48.616;12.872;2023-04-19T14:36:00;7.20;1.00
7684;DHT22;3884;48.616;12.872;2023-04-19T14:38:27;7.20;99.90
7684;DHT22;3884;48.616;12.872;2023-04-19T14:40:54;7.30;99.90
7684;DHT22;3884;48.616;12.872;2023-04-19T14:43:22;7.20;99.90
7684;DHT22;3884;48.616;12.872;2023-04-19T14:45:50;7.20;99.90
7684;DHT22;3884;48.616;12.872;2023-04-19T14:48:17;7.30;99.90
7684;DHT22;3884;48.616;12.872;2023-04-19T14:50:44;7.20;1.00
7684;DHT22;3884;48.616;12.872;2023-04-19T14:53:11;7.30;53.20
7684;DHT22;3884;48.616;12.872;2023-04-19T14:55:38;7.20;99.90
7684;DHT22;3884;48.616;12.872;2023-04-19T14:58:05;7.30;1.00
7684;DHT22;3884;48.616;12.872;2023-04-19T15:00:33;7.30;1.00
7684;DHT22;3884;48.616;12.872;2023-04-19T15:03:00;7.40;1.00
7684;DHT22;3884;48.616;12.872;2023-04-19T15:05:27;7.40;1.00
7684;DHT22;3884;48.616;12.872;2023-04-19T15:07:54;7.40;1.00
7684;DHT22;3884;48.616;12.872;2023-04-19T15:10:21;7.40;1.00
7684;DHT22;3884;48.616;12.872;2023-04-19T15:12:48;7.50;99.90
7684;DHT22;3884;48.616;12.872;2023-04-19T15:15:15;7.50;24.20
7684;DHT22;3884;48.616;12.872;2023-04-19T15:17:43;7.50;99.90
7684;DHT22;3884;48.616;12.872;2023-04-19T15:20:11;7.30;18.50
7684;DHT22;3884;48.616;12.872;2023-04-19T15:22:38;7.40;99.90
7684;DHT22;3884;48.616;12.872;2023-04-19T15:25:05;7.50;99.90
7684;DHT22;3884;48.616;12.872;2023-04-19T15:27:32;7.50;99.90
7684;DHT22;3884;48.616;12.872;2023-04-19T15:29:59;7.60;1.00
7684;DHT22;3884;48.616;12.872;2023-04-19T15:32:26;7.70;99.90
7684;DHT22;3884;48.616;12.872;2023-04-19T15:34:56;7.50;1.00
7684;DHT22;3884;48.616;12.872;2023-04-19T15:37:23;7.50;1.00
7684;DHT22;3884;48.616;12.872;2023-04-19T15:39:51;7.60;99.90
7684;DHT22;3884;48.616;12.872;2023-04-19T15:42:18;7.60;99.90
7684;DHT22;3884;48.616;12.872;2023-04-19T15:44:45;7.60;99.90
7684;DHT22;3884;48.616;12.872;2023-04-19T15:47:12;7.50;1.00
7684;DHT22;3884;48.616;12.872;2023-04-19T15:49:38;7.50;1.00
7684;DHT22;3884;48.616;12.872;2023-04-19T15:52:07;7.50;99.90
7684;DHT22;3884;48.616;12.872;2023-04-19T15:54:34;7.50;99.90
7684;DHT22;3884;48.616;12.872;2023-04-19T15:57:02;7.60;99.90
7684;DHT22;3884;48.616;12.872;2023-04-19T15:59:29;7.50;99.90
7684;DHT22;3884;48.616;12.872;2023-04-19T16:01:56;7.50;99.90
7684;DHT22;3884;48.616;12.872;2023-04-19T16:04:22;7.40;1.00
7684;DHT22;3884;48.616;12.872;2023-04-19T16:06:50;7.40;99.90
7684;DHT22;3884;48.616;12.872;2023-04-19T16:09:18;7.40;99.90
7684;DHT22;3884;48.616;12.872;2023-04-19T16:11:45;7.30;99.90